Αρχική σελίδα
METAR-TAF:

METAR-TAF

Αεροδρόμια :

Βηρυτός, Λίβανος

γεωγραφικό πλάτος: 33-49N, γεωγραφικό μήκος: 035-29E, υψόμετρο: 29 μ

METAR: λείπει

Χρόνος: 07:05 (04:05 UTC)

Πρόγνωση Καιρού

Η αναφορά έγινε 6 ώρες και 5 λεπτά πριν, στις 22:00 UTC
Η πρόγνωση ισχύει από τις 23 στις 00 UTC έως τις 24 στις 06 UTC
Άνεμος 5 kt από ΝA
Ορατότητα: 7000 μ
Λίγα νέφη σε ύψος 2300 πόδια
Καθιστάμενος
από 23 στις 09 UTC έως τις 23 στις 12 UTC
Άνεμος 10 kt από Δ/ΝΔ με ριπές μέχρι 20 kt
Διάσπαρτα νέφη σε ύψος 2300 πόδια
Προσωρινά
από 23 στις 09 UTC έως τις 24 στις 06 UTC
Ορατότητα: 5000 μ
Αχλής
Καθιστάμενος
από 23 στις 21 UTC έως τις 23 στις 24 UTC
Άνεμος 5 kt από μεταβλητές κατευθύνσεις

TAF: OLBA 222200Z 2300/2406 14005KT 7000 FEW023 BECMG 2309/2312 25010G20KT SCT023 TEMPO 2309/2406 5000 BR BECMG 2321/2324 VRB05KT

Μετεωρολογικές αναφορές και προγνώσεις για περισσότερα από 4000 αεροδρόμια (δελτία METAR και TAF).

Οι διαθέσιμοι σταθμοί απεικονίζονται στο χάρτη με κίτρινες και κόκκινες κουκκίδες.

Μετακινήστε το ποντίκι πάνω από τις κουκκίδες για να δείτε το όνομα του σταθμού.

Στη συνέχεια, κάντε κλικ για να δείτε τις μετεωρολογικές αναφορές και τις προγνώσεις καιρού.

Για να αλλάξετε το χάρτη: κάντε κλικ στα πράσινα κουμπιά με τον μαύρο σταυρό για να ζουμάρετε, στο πράσινο κουμπί με την παύλα για να αφαιρέσετε το ζουμ ή στα πράσινα βέλη για να αντιπαραβάλλετε χάρτες.


METAR-TAF: